sensor_id;sensor_type;location;lat;lon;timestamp;pressure;altitude;pressure_sealevel;temperature;humidity
3260;BME280;22469;48.150;14.004;2022-08-19T00:02:12;97426.50;;;23.51;67.30
3260;BME280;22469;48.150;14.004;2022-08-19T00:04:39;97433.94;;;23.56;66.86
3260;BME280;22469;48.150;14.004;2022-08-19T00:07:07;97428.38;;;23.59;66.33
3260;BME280;22469;48.150;14.004;2022-08-19T00:09:34;97427.56;;;23.58;67.17
3260;BME280;22469;48.150;14.004;2022-08-19T00:12:02;97443.16;;;23.60;66.85
3260;BME280;22469;48.150;14.004;2022-08-19T00:14:30;97439.31;;;23.54;66.98
3260;BME280;22469;48.150;14.004;2022-08-19T00:16:59;97434.06;;;23.54;66.99
3260;BME280;22469;48.150;14.004;2022-08-19T00:19:26;97434.47;;;23.59;66.63
3260;BME280;22469;48.150;14.004;2022-08-19T00:21:53;97434.31;;;23.61;66.60
3260;BME280;22469;48.150;14.004;2022-08-19T00:24:23;97430.44;;;23.65;66.58
3260;BME280;22469;48.150;14.004;2022-08-19T00:26:51;97418.16;;;23.65;66.70
3260;BME280;22469;48.150;14.004;2022-08-19T00:29:20;97411.03;;;23.68;66.44
3260;BME280;22469;48.150;14.004;2022-08-19T00:31:48;97414.34;;;23.70;66.16
3260;BME280;22469;48.150;14.004;2022-08-19T00:34:16;97429.06;;;23.71;66.06
3260;BME280;22469;48.150;14.004;2022-08-19T00:36:44;97439.38;;;23.72;66.50
3260;BME280;22469;48.150;14.004;2022-08-19T00:39:13;97443.53;;;23.75;66.37
3260;BME280;22469;48.150;14.004;2022-08-19T00:41:43;97437.75;;;23.71;66.44
3260;BME280;22469;48.150;14.004;2022-08-19T00:44:21;97440.78;;;23.67;66.09
3260;BME280;22469;48.150;14.004;2022-08-19T00:46:55;97433.22;;;23.63;66.54
3260;BME280;22469;48.150;14.004;2022-08-19T00:49:32;97438.75;;;23.60;66.91
3260;BME280;22469;48.150;14.004;2022-08-19T00:52:12;97434.31;;;23.61;66.74
3260;BME280;22469;48.150;14.004;2022-08-19T00:54:42;97438.75;;;23.60;66.76
3260;BME280;22469;48.150;14.004;2022-08-19T00:57:17;97429.78;;;23.63;66.17
3260;BME280;22469;48.150;14.004;2022-08-19T00:59:48;97438.97;;;23.67;65.92
3260;BME280;22469;48.150;14.004;2022-08-19T01:02:29;97449.47;;;23.67;66.05
3260;BME280;22469;48.150;14.004;2022-08-19T01:04:59;97450.84;;;23.71;65.82
3260;BME280;22469;48.150;14.004;2022-08-19T01:07:28;97442.84;;;23.73;65.84
3260;BME280;22469;48.150;14.004;2022-08-19T01:10:06;97433.19;;;23.73;65.73
3260;BME280;22469;48.150;14.004;2022-08-19T01:12:36;97439.38;;;23.72;65.53
3260;BME280;22469;48.150;14.004;2022-08-19T01:15:06;97440.66;;;23.68;66.11
3260;BME280;22469;48.150;14.004;2022-08-19T01:17:38;97423.97;;;23.69;65.79
3260;BME280;22469;48.150;14.004;2022-08-19T01:20:11;97421.34;;;23.69;65.81
3260;BME280;22469;48.150;14.004;2022-08-19T01:22:42;97432.94;;;23.67;66.52
3260;BME280;22469;48.150;14.004;2022-08-19T01:25:10;97437.75;;;23.61;66.41
3260;BME280;22469;48.150;14.004;2022-08-19T01:27:43;97424.94;;;23.58;66.43
3260;BME280;22469;48.150;14.004;2022-08-19T01:30:17;97428.25;;;23.60;66.59
3260;BME280;22469;48.150;14.004;2022-08-19T01:32:49;97437.22;;;23.58;66.76
3260;BME280;22469;48.150;14.004;2022-08-19T01:35:18;97441.81;;;23.56;66.87
3260;BME280;22469;48.150;14.004;2022-08-19T01:37:52;97448.69;;;23.57;66.97
3260;BME280;22469;48.150;14.004;2022-08-19T01:40:24;97441.66;;;23.57;67.08
3260;BME280;22469;48.150;14.004;2022-08-19T01:42:54;97450.31;;;23.58;66.60
3260;BME280;22469;48.150;14.004;2022-08-19T01:45:24;97452.41;;;23.54;66.39
3260;BME280;22469;48.150;14.004;2022-08-19T01:47:52;97449.66;;;23.56;66.31
3260;BME280;22469;48.150;14.004;2022-08-19T01:50:29;97449.66;;;23.56;66.38
3260;BME280;22469;48.150;14.004;2022-08-19T01:52:57;97445.25;;;23.56;66.41
3260;BME280;22469;48.150;14.004;2022-08-19T01:55:32;97448.69;;;23.57;66.51
3260;BME280;22469;48.150;14.004;2022-08-19T01:58:13;97439.19;;;23.56;66.64
3260;BME280;22469;48.150;14.004;2022-08-19T02:00:44;97427.78;;;23.47;66.54
3260;BME280;22469;48.150;14.004;2022-08-19T02:03:12;97412.22;;;23.46;66.75
3260;BME280;22469;48.150;14.004;2022-08-19T02:05:42;97422.41;;;23.49;66.90
3260;BME280;22469;48.150;14.004;2022-08-19T02:08:11;97410.13;;;23.49;66.82
3260;BME280;22469;48.150;14.004;2022-08-19T02:10:40;97407.34;;;23.51;66.71
3260;BME280;22469;48.150;14.004;2022-08-19T02:13:10;97417.53;;;23.54;66.92
3260;BME280;22469;48.150;14.004;2022-08-19T02:15:38;97409.69;;;23.54;67.04
3260;BME280;22469;48.150;14.004;2022-08-19T02:18:06;97405.44;;;23.53;67.22
3260;BME280;22469;48.150;14.004;2022-08-19T02:20:34;97400.19;;;23.53;66.72
3260;BME280;22469;48.150;14.004;2022-08-19T02:23:03;97400.31;;;23.51;66.89
3260;BME280;22469;48.150;14.004;2022-08-19T02:25:39;97424.56;;;23.53;67.32
3260;BME280;22469;48.150;14.004;2022-08-19T02:28:07;97439.06;;;23.48;67.37
3260;BME280;22469;48.150;14.004;2022-08-19T02:30:34;97447.91;;;23.47;67.49
3260;BME280;22469;48.150;14.004;2022-08-19T02:33:01;97442.94;;;23.44;67.62
3260;BME280;22469;48.150;14.004;2022-08-19T02:35:29;97430.28;;;23.39;67.71
3260;BME280;22469;48.150;14.004;2022-08-19T02:37:56;97429.75;;;23.35;67.88
3260;BME280;22469;48.150;14.004;2022-08-19T02:40:49;97423.13;;;23.31;68.23
3260;BME280;22469;48.150;14.004;2022-08-19T02:43:18;97417.06;;;23.31;68.04
3260;BME280;22469;48.150;14.004;2022-08-19T02:45:49;97421.91;;;23.35;67.87
3260;BME280;22469;48.150;14.004;2022-08-19T02:48:20;97441.72;;;23.38;67.72
3260;BME280;22469;48.150;14.004;2022-08-19T02:50:51;97455.66;;;23.38;67.86
3260;BME280;22469;48.150;14.004;2022-08-19T02:53:23;97455.66;;;23.38;67.31
3260;BME280;22469;48.150;14.004;2022-08-19T02:55:52;97442.00;;;23.35;68.03
3260;BME280;22469;48.150;14.004;2022-08-19T02:58:21;97450.97;;;23.32;68.10
3260;BME280;22469;48.150;14.004;2022-08-19T03:00:53;97453.44;;;23.34;68.09
3260;BME280;22469;48.150;14.004;2022-08-19T03:03:22;97465.41;;;23.36;68.18
3260;BME280;22469;48.150;14.004;2022-08-19T03:05:49;97465.13;;;23.39;67.98
3260;BME280;22469;48.150;14.004;2022-08-19T03:08:24;97467.59;;;23.41;68.16
3260;BME280;22469;48.150;14.004;2022-08-19T03:10:52;97468.72;;;23.38;68.20
3260;BME280;22469;48.150;14.004;2022-08-19T03:13:20;97471.19;;;23.40;68.04
3260;BME280;22469;48.150;14.004;2022-08-19T03:15:48;97476.00;;;23.45;68.15
3260;BME280;22469;48.150;14.004;2022-08-19T03:18:15;97477.50;;;23.47;68.19
3260;BME280;22469;48.150;14.004;2022-08-19T03:20:49;97492.94;;;23.50;68.08
3260;BME280;22469;48.150;14.004;2022-08-19T03:23:21;97495.84;;;23.47;68.56
3260;BME280;22469;48.150;14.004;2022-08-19T03:25:51;97497.53;;;23.38;68.86
3260;BME280;22469;48.150;14.004;2022-08-19T03:28:41;97498.09;;;23.32;69.02
3260;BME280;22469;48.150;14.004;2022-08-19T03:31:21;97499.63;;;23.25;69.37
3260;BME280;22469;48.150;14.004;2022-08-19T03:34:12;97508.59;;;23.13;70.17
3260;BME280;22469;48.150;14.004;2022-08-19T03:36:41;97487.75;;;23.21;69.61
3260;BME280;22469;48.150;14.004;2022-08-19T03:39:09;97473.56;;;23.24;69.24
3260;BME280;22469;48.150;14.004;2022-08-19T03:41:38;97470.97;;;23.24;68.89
3260;BME280;22469;48.150;14.004;2022-08-19T03:44:18;97481.56;;;23.32;69.31
3260;BME280;22469;48.150;14.004;2022-08-19T03:46:53;97490.63;;;23.37;68.54
3260;BME280;22469;48.150;14.004;2022-08-19T03:49:25;97498.06;;;23.42;68.41
3260;BME280;22469;48.150;14.004;2022-08-19T03:51:56;97503.84;;;23.46;68.42
3260;BME280;22469;48.150;14.004;2022-08-19T03:54:25;97500.09;;;23.48;68.13
3260;BME280;22469;48.150;14.004;2022-08-19T03:56:55;97508.47;;;23.52;67.92
3260;BME280;22469;48.150;14.004;2022-08-19T03:59:30;97513.06;;;23.50;68.15
3260;BME280;22469;48.150;14.004;2022-08-19T04:02:02;97511.69;;;23.46;68.53
3260;BME280;22469;48.150;14.004;2022-08-19T04:04:39;97516.22;;;23.44;68.34
3260;BME280;22469;48.150;14.004;2022-08-19T04:07:09;97531.78;;;23.45;68.33
3260;BME280;22469;48.150;14.004;2022-08-19T04:09:37;97530.16;;;23.44;68.25
3260;BME280;22469;48.150;14.004;2022-08-19T04:12:05;97538.69;;;23.46;68.34
3260;BME280;22469;48.150;14.004;2022-08-19T04:14:32;97544.59;;;23.48;68.00
3260;BME280;22469;48.150;14.004;2022-08-19T04:17:02;97554.94;;;23.50;68.31
3260;BME280;22469;48.150;14.004;2022-08-19T04:19:33;97581.13;;;23.50;68.25
3260;BME280;22469;48.150;14.004;2022-08-19T04:22:02;97606.31;;;23.51;68.02
3260;BME280;22469;48.150;14.004;2022-08-19T04:24:30;97617.63;;;23.51;68.12
3260;BME280;22469;48.150;14.004;2022-08-19T04:27:00;97618.44;;;23.52;68.03
3260;BME280;22469;48.150;14.004;2022-08-19T04:29:28;97620.13;;;23.53;68.38
3260;BME280;22469;48.150;14.004;2022-08-19T04:31:57;97624.81;;;23.49;68.15
3260;BME280;22469;48.150;14.004;2022-08-19T04:34:36;97624.25;;;23.46;68.56
3260;BME280;22469;48.150;14.004;2022-08-19T04:37:25;97630.88;;;23.50;68.39
3260;BME280;22469;48.150;14.004;2022-08-19T04:40:03;97624.81;;;23.49;68.23
3260;BME280;22469;48.150;14.004;2022-08-19T04:42:51;97630.03;;;23.49;68.85
3260;BME280;22469;48.150;14.004;2022-08-19T04:45:19;97618.75;;;23.49;68.81
3260;BME280;22469;48.150;14.004;2022-08-19T04:47:48;97608.53;;;23.55;68.39
3260;BME280;22469;48.150;14.004;2022-08-19T04:50:36;97593.66;;;23.46;68.86
3260;BME280;22469;48.150;14.004;2022-08-19T04:53:03;97580.03;;;23.52;68.90
3260;BME280;22469;48.150;14.004;2022-08-19T04:55:30;97562.25;;;23.56;68.49
3260;BME280;22469;48.150;14.004;2022-08-19T04:58:03;97549.44;;;23.43;69.84
3260;BME280;22469;48.150;14.004;2022-08-19T05:00:30;97542.53;;;23.52;69.73
3260;BME280;22469;48.150;14.004;2022-08-19T05:03:01;97539.34;;;23.58;68.78
3260;BME280;22469;48.150;14.004;2022-08-19T05:05:33;97526.66;;;23.63;69.44
3260;BME280;22469;48.150;14.004;2022-08-19T05:08:12;97519.47;;;23.65;70.13
3260;BME280;22469;48.150;14.004;2022-08-19T05:10:41;97527.06;;;23.68;69.65
3260;BME280;22469;48.150;14.004;2022-08-19T05:13:08;97533.53;;;23.74;69.68
3260;BME280;22469;48.150;14.004;2022-08-19T05:15:36;97535.06;;;23.76;70.02
3260;BME280;22469;48.150;14.004;2022-08-19T05:18:03;97535.59;;;23.80;69.92
3260;BME280;22469;48.150;14.004;2022-08-19T05:20:49;97544.41;;;23.79;70.26
3260;BME280;22469;48.150;14.004;2022-08-19T05:23:35;97557.66;;;23.77;70.43
3260;BME280;22469;48.150;14.004;2022-08-19T05:26:02;97562.72;;;23.79;70.60
3260;BME280;22469;48.150;14.004;2022-08-19T05:28:29;97552.94;;;23.81;70.69
3260;BME280;22469;48.150;14.004;2022-08-19T05:30:56;97530.34;;;23.80;70.61
3260;BME280;22469;48.150;14.004;2022-08-19T05:33:23;97525.13;;;23.80;71.14
3260;BME280;22469;48.150;14.004;2022-08-19T05:35:51;97519.03;;;23.79;70.85
3260;BME280;22469;48.150;14.004;2022-08-19T05:38:19;97501.25;;;23.83;70.63
3260;BME280;22469;48.150;14.004;2022-08-19T05:40:46;97491.44;;;23.85;71.12
3260;BME280;22469;48.150;14.004;2022-08-19T05:43:16;97479.03;;;23.87;70.78
3260;BME280;22469;48.150;14.004;2022-08-19T05:45:43;97479.28;;;23.94;70.73
3260;BME280;22469;48.150;14.004;2022-08-19T05:48:12;97486.00;;;23.96;70.67
3260;BME280;22469;48.150;14.004;2022-08-19T05:50:41;97484.75;;;24.00;70.82
3260;BME280;22469;48.150;14.004;2022-08-19T05:53:08;97494.78;;;24.05;71.17
3260;BME280;22469;48.150;14.004;2022-08-19T05:55:36;97510.88;;;24.10;71.40
3260;BME280;22469;48.150;14.004;2022-08-19T05:58:05;97507.03;;;24.14;71.75
3260;BME280;22469;48.150;14.004;2022-08-19T06:00:35;97504.13;;;24.17;71.90
3260;BME280;22469;48.150;14.004;2022-08-19T06:03:04;97498.78;;;24.27;71.95
3260;BME280;22469;48.150;14.004;2022-08-19T06:05:39;97499.03;;;24.33;71.60
3260;BME280;22469;48.150;14.004;2022-08-19T06:08:16;97493.09;;;24.41;70.69
3260;BME280;22469;48.150;14.004;2022-08-19T06:10:45;97492.34;;;24.49;70.45
3260;BME280;22469;48.150;14.004;2022-08-19T06:13:12;97487.31;;;24.55;71.17
3260;BME280;22469;48.150;14.004;2022-08-19T06:15:39;97474.44;;;24.62;70.75
3260;BME280;22469;48.150;14.004;2022-08-19T06:18:07;97476.31;;;24.70;70.81
3260;BME280;22469;48.150;14.004;2022-08-19T06:20:35;97480.25;;;24.74;71.24
3260;BME280;22469;48.150;14.004;2022-08-19T06:23:21;97480.34;;;24.82;71.56
3260;BME280;22469;48.150;14.004;2022-08-19T06:25:49;97483.16;;;24.89;71.35
3260;BME280;22469;48.150;14.004;2022-08-19T06:28:17;97497.03;;;24.99;70.92
3260;BME280;22469;48.150;14.004;2022-08-19T06:30:44;97491.84;;;25.07;70.72
3260;BME280;22469;48.150;14.004;2022-08-19T06:33:11;97480.91;;;25.12;70.57
3260;BME280;22469;48.150;14.004;2022-08-19T06:35:40;97488.19;;;25.18;69.49
3260;BME280;22469;48.150;14.004;2022-08-19T06:38:08;97499.38;;;25.20;69.03
3260;BME280;22469;48.150;14.004;2022-08-19T06:40:36;97518.25;;;25.23;68.77
3260;BME280;22469;48.150;14.004;2022-08-19T06:43:04;97524.16;;;25.25;69.39
3260;BME280;22469;48.150;14.004;2022-08-19T06:45:36;97543.88;;;25.29;69.45
3260;BME280;22469;48.150;14.004;2022-08-19T06:48:05;97540.13;;;25.32;69.46
3260;BME280;22469;48.150;14.004;2022-08-19T06:50:33;97527.22;;;25.39;69.77
3260;BME280;22469;48.150;14.004;2022-08-19T06:53:04;97532.66;;;25.45;69.29
3260;BME280;22469;48.150;14.004;2022-08-19T06:55:32;97558.66;;;25.57;69.72
3260;BME280;22469;48.150;14.004;2022-08-19T06:58:02;97565.13;;;25.62;68.35
3260;BME280;22469;48.150;14.004;2022-08-19T07:00:30;97564.63;;;25.67;68.88
3260;BME280;22469;48.150;14.004;2022-08-19T07:02:57;97554.81;;;25.69;67.83
3260;BME280;22469;48.150;14.004;2022-08-19T07:05:31;97547.44;;;25.72;68.33
3260;BME280;22469;48.150;14.004;2022-08-19T07:07:59;97556.97;;;25.73;67.54
3260;BME280;22469;48.150;14.004;2022-08-19T07:10:30;97559.59;;;25.73;67.82
3260;BME280;22469;48.150;14.004;2022-08-19T07:13:01;97563.50;;;25.69;67.13
3260;BME280;22469;48.150;14.004;2022-08-19T07:15:28;97565.00;;;25.72;67.17
3260;BME280;22469;48.150;14.004;2022-08-19T07:17:55;97569.28;;;25.73;67.00
3260;BME280;22469;48.150;14.004;2022-08-19T07:20:22;97568.25;;;25.66;66.29
3260;BME280;22469;48.150;14.004;2022-08-19T07:22:55;97578.75;;;25.66;66.41
3260;BME280;22469;48.150;14.004;2022-08-19T07:25:22;97580.91;;;25.70;66.77
3260;BME280;22469;48.150;14.004;2022-08-19T07:27:58;97583.84;;;25.67;67.17
3260;BME280;22469;48.150;14.004;2022-08-19T07:30:27;97575.31;;;25.65;67.22
3260;BME280;22469;48.150;14.004;2022-08-19T07:32:54;97566.09;;;25.61;66.73
3260;BME280;22469;48.150;14.004;2022-08-19T07:35:23;97558.97;;;25.53;66.71
3260;BME280;22469;48.150;14.004;2022-08-19T07:37:50;97548.25;;;25.47;66.61
3260;BME280;22469;48.150;14.004;2022-08-19T07:40:20;97546.69;;;25.54;67.17
3260;BME280;22469;48.150;14.004;2022-08-19T07:42:47;97553.41;;;25.57;66.16
3260;BME280;22469;48.150;14.004;2022-08-19T07:45:14;97544.41;;;25.59;65.91
3260;BME280;22469;48.150;14.004;2022-08-19T07:47:42;97534.91;;;25.66;66.22
3260;BME280;22469;48.150;14.004;2022-08-19T07:50:19;97531.69;;;25.72;65.94
3260;BME280;22469;48.150;14.004;2022-08-19T07:52:48;97529.13;;;25.81;65.39
3260;BME280;22469;48.150;14.004;2022-08-19T07:55:21;97529.69;;;25.92;64.68
3260;BME280;22469;48.150;14.004;2022-08-19T07:58:10;97523.31;;;26.03;64.77
3260;BME280;22469;48.150;14.004;2022-08-19T08:00:39;97509.53;;;26.09;63.59
3260;BME280;22469;48.150;14.004;2022-08-19T08:03:08;97505.13;;;26.18;63.11
3260;BME280;22469;48.150;14.004;2022-08-19T08:05:35;97512.56;;;26.31;64.59
3260;BME280;22469;48.150;14.004;2022-08-19T08:08:22;97495.63;;;26.33;63.11
3260;BME280;22469;48.150;14.004;2022-08-19T08:11:13;97493.00;;;26.41;62.73
3260;BME280;22469;48.150;14.004;2022-08-19T08:13:43;97495.38;;;26.69;62.58
3260;BME280;22469;48.150;14.004;2022-08-19T08:16:10;97486.34;;;26.80;62.24
3260;BME280;22469;48.150;14.004;2022-08-19T08:18:40;97486.66;;;26.93;61.74
3260;BME280;22469;48.150;14.004;2022-08-19T08:21:16;97474.97;;;27.12;60.77
3260;BME280;22469;48.150;14.004;2022-08-19T08:23:43;97472.84;;;27.32;60.36
3260;BME280;22469;48.150;14.004;2022-08-19T08:26:10;97468.69;;;27.46;58.48
3260;BME280;22469;48.150;14.004;2022-08-19T08:28:41;97459.13;;;27.45;57.61
3260;BME280;22469;48.150;14.004;2022-08-19T08:31:13;97454.53;;;27.47;57.73
3260;BME280;22469;48.150;14.004;2022-08-19T08:33:41;97457.47;;;27.52;58.07
3260;BME280;22469;48.150;14.004;2022-08-19T08:36:09;97458.94;;;27.54;57.41
3260;BME280;22469;48.150;14.004;2022-08-19T08:38:37;97462.41;;;27.55;57.04
3260;BME280;22469;48.150;14.004;2022-08-19T08:44:23;97448.34;;;27.71;58.36
3260;BME280;22469;48.150;14.004;2022-08-19T08:46:59;97442.72;;;27.82;56.98
3260;BME280;22469;48.150;14.004;2022-08-19T08:52:36;97452.44;;;28.13;56.23
3260;BME280;22469;48.150;14.004;2022-08-19T08:55:21;97464.41;;;28.23;55.58
3260;BME280;22469;48.150;14.004;2022-08-19T08:58:12;97467.50;;;28.04;54.39
3260;BME280;22469;48.150;14.004;2022-08-19T09:00:45;97473.06;;;27.70;55.24
3260;BME280;22469;48.150;14.004;2022-08-19T09:03:19;97470.03;;;27.89;55.52
3260;BME280;22469;48.150;14.004;2022-08-19T09:08:59;97467.50;;;28.35;55.16
3260;BME280;22469;48.150;14.004;2022-08-19T09:15:06;97468.97;;;28.61;54.44
3260;BME280;22469;48.150;14.004;2022-08-19T09:17:35;97479.44;;;28.77;52.83
3260;BME280;22469;48.150;14.004;2022-08-19T09:20:22;97459.94;;;29.01;52.61
3260;BME280;22469;48.150;14.004;2022-08-19T09:22:51;97460.88;;;29.23;52.70
3260;BME280;22469;48.150;14.004;2022-08-19T09:25:21;97478.28;;;29.32;52.24
3260;BME280;22469;48.150;14.004;2022-08-19T09:27:55;97485.44;;;29.09;52.70
3260;BME280;22469;48.150;14.004;2022-08-19T09:30:32;97497.72;;;28.78;51.70
3260;BME280;22469;48.150;14.004;2022-08-19T09:33:06;97503.84;;;28.56;53.44
3260;BME280;22469;48.150;14.004;2022-08-19T09:35:34;97512.44;;;28.50;53.03
3260;BME280;22469;48.150;14.004;2022-08-19T09:38:18;97511.09;;;28.54;53.07
3260;BME280;22469;48.150;14.004;2022-08-19T09:40:46;97517.59;;;28.43;52.06
3260;BME280;22469;48.150;14.004;2022-08-19T09:43:13;97522.06;;;28.43;50.72
3260;BME280;22469;48.150;14.004;2022-08-19T09:45:59;97520.06;;;28.45;50.93
3260;BME280;22469;48.150;14.004;2022-08-19T09:48:27;97517.25;;;28.46;51.30
3260;BME280;22469;48.150;14.004;2022-08-19T09:50:54;97505.00;;;28.53;51.78
3260;BME280;22469;48.150;14.004;2022-08-19T09:53:21;97497.63;;;28.72;51.09
3260;BME280;22469;48.150;14.004;2022-08-19T09:55:51;97485.63;;;28.84;51.23
3260;BME280;22469;48.150;14.004;2022-08-19T09:58:19;97474.97;;;29.00;50.90
3260;BME280;22469;48.150;14.004;2022-08-19T10:00:52;97486.84;;;29.19;51.07
3260;BME280;22469;48.150;14.004;2022-08-19T10:03:20;97484.13;;;29.42;50.08
3260;BME280;22469;48.150;14.004;2022-08-19T10:05:57;97486.31;;;29.39;49.10
3260;BME280;22469;48.150;14.004;2022-08-19T10:08:29;97487.28;;;29.08;49.90
3260;BME280;22469;48.150;14.004;2022-08-19T10:11:00;97487.84;;;29.18;50.79
3260;BME280;22469;48.150;14.004;2022-08-19T10:13:48;97483.03;;;29.22;49.96
3260;BME280;22469;48.150;14.004;2022-08-19T10:16:20;97476.09;;;29.21;49.35
3260;BME280;22469;48.150;14.004;2022-08-19T10:18:56;97474.63;;;29.33;49.21
3260;BME280;22469;48.150;14.004;2022-08-19T10:21:30;97483.13;;;29.28;49.61
3260;BME280;22469;48.150;14.004;2022-08-19T10:24:01;97477.19;;;29.26;49.55
3260;BME280;22469;48.150;14.004;2022-08-19T10:26:34;97477.28;;;29.33;49.47
3260;BME280;22469;48.150;14.004;2022-08-19T10:29:04;97476.75;;;29.38;49.83
3260;BME280;22469;48.150;14.004;2022-08-19T10:31:34;97467.72;;;29.47;49.81
3260;BME280;22469;48.150;14.004;2022-08-19T10:34:22;97462.72;;;29.52;49.84
3260;BME280;22469;48.150;14.004;2022-08-19T10:36:54;97452.25;;;29.44;48.80
3260;BME280;22469;48.150;14.004;2022-08-19T10:39:30;97454.19;;;28.74;50.54
3260;BME280;22469;48.150;14.004;2022-08-19T10:42:08;97438.34;;;28.74;51.04
3260;BME280;22469;48.150;14.004;2022-08-19T10:44:41;97436.69;;;28.96;50.75
3260;BME280;22469;48.150;14.004;2022-08-19T10:47:08;97426.63;;;29.15;50.36
3260;BME280;22469;48.150;14.004;2022-08-19T10:49:50;97423.91;;;29.38;50.62
3260;BME280;22469;48.150;14.004;2022-08-19T10:52:41;97426.94;;;29.64;50.26
3260;BME280;22469;48.150;14.004;2022-08-19T10:55:17;97423.91;;;29.82;48.72
3260;BME280;22469;48.150;14.004;2022-08-19T10:58:10;97421.13;;;29.90;48.43
3260;BME280;22469;48.150;14.004;2022-08-19T11:00:42;97415.31;;;29.80;49.11
3260;BME280;22469;48.150;14.004;2022-08-19T11:03:10;97420.34;;;29.75;48.84
3260;BME280;22469;48.150;14.004;2022-08-19T11:05:38;97420.06;;;29.55;49.21
3260;BME280;22469;48.150;14.004;2022-08-19T11:08:07;97424.19;;;29.28;49.40
3260;BME280;22469;48.150;14.004;2022-08-19T11:10:53;97433.28;;;29.25;49.90
3260;BME280;22469;48.150;14.004;2022-08-19T11:13:31;97431.09;;;29.14;49.72
3260;BME280;22469;48.150;14.004;2022-08-19T11:16:04;97434.28;;;29.24;49.04
3260;BME280;22469;48.150;14.004;2022-08-19T11:18:38;97430.00;;;29.38;48.79
3260;BME280;22469;48.150;14.004;2022-08-19T11:21:16;97424.72;;;29.53;48.50
3260;BME280;22469;48.150;14.004;2022-08-19T11:23:51;97415.53;;;29.64;48.34
3260;BME280;22469;48.150;14.004;2022-08-19T11:26:20;97418.78;;;29.81;47.41
3260;BME280;22469;48.150;14.004;2022-08-19T11:28:50;97422.97;;;29.90;46.15
3260;BME280;22469;48.150;14.004;2022-08-19T11:31:25;97420.41;;;29.96;45.98
3260;BME280;22469;48.150;14.004;2022-08-19T11:34:00;97417.63;;;30.05;45.96
3260;BME280;22469;48.150;14.004;2022-08-19T11:36:29;97425.91;;;30.16;47.59
3260;BME280;22469;48.150;14.004;2022-08-19T11:38:59;97419.47;;;30.19;46.60
3260;BME280;22469;48.150;14.004;2022-08-19T11:41:27;97422.34;;;30.24;46.13
3260;BME280;22469;48.150;14.004;2022-08-19T11:43:55;97426.81;;;30.24;46.25
3260;BME280;22469;48.150;14.004;2022-08-19T11:46:24;97415.50;;;30.30;46.24
3260;BME280;22469;48.150;14.004;2022-08-19T11:48:54;97414.28;;;30.32;45.40
3260;BME280;22469;48.150;14.004;2022-08-19T11:51:23;97408.22;;;30.38;45.77
3260;BME280;22469;48.150;14.004;2022-08-19T11:53:55;97412.41;;;30.48;45.78
3260;BME280;22469;48.150;14.004;2022-08-19T11:56:24;97413.66;;;30.52;45.49
3260;BME280;22469;48.150;14.004;2022-08-19T11:58:53;97409.00;;;30.54;44.95
3260;BME280;22469;48.150;14.004;2022-08-19T12:01:23;97402.47;;;30.56;44.90
3260;BME280;22469;48.150;14.004;2022-08-19T12:03:52;97404.19;;;30.42;45.01
3260;BME280;22469;48.150;14.004;2022-08-19T12:06:26;97404.25;;;30.28;45.41
3260;BME280;22469;48.150;14.004;2022-08-19T12:09:00;97403.19;;;30.43;45.28
3260;BME280;22469;48.150;14.004;2022-08-19T12:11:30;97395.31;;;30.50;44.23
3260;BME280;22469;48.150;14.004;2022-08-19T12:14:00;97389.88;;;30.58;44.23
3260;BME280;22469;48.150;14.004;2022-08-19T12:16:29;97389.88;;;30.58;44.41
3260;BME280;22469;48.150;14.004;2022-08-19T12:18:58;97375.88;;;30.64;45.78
3260;BME280;22469;48.150;14.004;2022-08-19T12:21:32;97378.47;;;30.79;44.40
3260;BME280;22469;48.150;14.004;2022-08-19T12:24:02;97399.50;;;30.66;43.74
3260;BME280;22469;48.150;14.004;2022-08-19T12:26:33;97413.09;;;30.78;45.09
3260;BME280;22469;48.150;14.004;2022-08-19T12:29:18;97409.28;;;30.87;43.82
3260;BME280;22469;48.150;14.004;2022-08-19T12:31:50;97410.16;;;30.94;43.92
3260;BME280;22469;48.150;14.004;2022-08-19T12:34:17;97408.75;;;30.98;44.56
3260;BME280;22469;48.150;14.004;2022-08-19T12:36:46;97401.00;;;30.97;43.08
3260;BME280;22469;48.150;14.004;2022-08-19T12:39:16;97401.00;;;30.97;42.72
3260;BME280;22469;48.150;14.004;2022-08-19T12:41:43;97396.03;;;30.87;42.76
3260;BME280;22469;48.150;14.004;2022-08-19T12:44:20;97395.38;;;30.78;43.39
3260;BME280;22469;48.150;14.004;2022-08-19T12:46:57;97401.09;;;30.82;43.14
3260;BME280;22469;48.150;14.004;2022-08-19T12:49:28;97382.22;;;30.91;43.70
3260;BME280;22469;48.150;14.004;2022-08-19T12:52:15;97384.53;;;31.01;42.89
3260;BME280;22469;48.150;14.004;2022-08-19T12:54:49;97386.59;;;31.06;41.69
3260;BME280;22469;48.150;14.004;2022-08-19T12:57:24;97390.06;;;30.78;41.69
3260;BME280;22469;48.150;14.004;2022-08-19T13:02:33;97382.06;;;31.00;41.78
3260;BME280;22469;48.150;14.004;2022-08-19T13:05:06;97383.91;;;30.99;43.06
3260;BME280;22469;48.150;14.004;2022-08-19T13:07:37;97389.75;;;30.88;43.66
3260;BME280;22469;48.150;14.004;2022-08-19T13:10:10;97395.22;;;30.86;43.58
3260;BME280;22469;48.150;14.004;2022-08-19T13:12:39;97388.03;;;30.80;43.38
3260;BME280;22469;48.150;14.004;2022-08-19T13:15:08;97381.41;;;30.91;43.51
3260;BME280;22469;48.150;14.004;2022-08-19T13:17:38;97394.75;;;31.11;42.43
3260;BME280;22469;48.150;14.004;2022-08-19T13:20:10;97384.50;;;31.29;40.85
3260;BME280;22469;48.150;14.004;2022-08-19T13:22:38;97383.56;;;31.44;41.21
3260;BME280;22469;48.150;14.004;2022-08-19T13:25:06;97395.47;;;31.61;40.25
3260;BME280;22469;48.150;14.004;2022-08-19T13:27:35;97384.84;;;31.54;40.39
3260;BME280;22469;48.150;14.004;2022-08-19T13:30:05;97380.81;;;31.72;40.05
3260;BME280;22469;48.150;14.004;2022-08-19T13:32:52;97380.91;;;31.92;40.04
3260;BME280;22469;48.150;14.004;2022-08-19T13:35:46;97369.91;;;32.01;38.80
3260;BME280;22469;48.150;14.004;2022-08-19T13:38:22;97372.78;;;32.20;39.08
3260;BME280;22469;48.150;14.004;2022-08-19T13:40:52;97368.31;;;32.33;37.85